sensor_id;sensor_type;location;lat;lon;timestamp;P1;durP1;ratioP1;P2;durP2;ratioP2
24261;SDS011;12385;51.412;5.540;2024-01-30T00:01:50;12.80;;;9.20;;
24261;SDS011;12385;51.412;5.540;2024-01-30T00:04:19;15.35;;;9.45;;
24261;SDS011;12385;51.412;5.540;2024-01-30T00:06:44;13.98;;;9.27;;
24261;SDS011;12385;51.412;5.540;2024-01-30T00:09:13;12.75;;;8.90;;
24261;SDS011;12385;51.412;5.540;2024-01-30T00:11:40;15.32;;;9.90;;
24261;SDS011;12385;51.412;5.540;2024-01-30T00:14:06;15.15;;;8.60;;
24261;SDS011;12385;51.412;5.540;2024-01-30T00:16:31;12.35;;;8.77;;
24261;SDS011;12385;51.412;5.540;2024-01-30T00:18:57;13.45;;;9.05;;
24261;SDS011;12385;51.412;5.540;2024-01-30T00:21:23;15.02;;;9.15;;
24261;SDS011;12385;51.412;5.540;2024-01-30T00:23:50;12.77;;;9.13;;
24261;SDS011;12385;51.412;5.540;2024-01-30T00:26:19;14.32;;;9.05;;
24261;SDS011;12385;51.412;5.540;2024-01-30T00:31:14;21.00;;;9.55;;
24261;SDS011;12385;51.412;5.540;2024-01-30T00:36:14;14.20;;;9.48;;
24261;SDS011;12385;51.412;5.540;2024-01-30T00:38:40;15.07;;;9.52;;
24261;SDS011;12385;51.412;5.540;2024-01-30T00:41:07;18.75;;;9.52;;
24261;SDS011;12385;51.412;5.540;2024-01-30T00:43:33;13.65;;;8.95;;
24261;SDS011;12385;51.412;5.540;2024-01-30T00:45:59;13.85;;;9.40;;
24261;SDS011;12385;51.412;5.540;2024-01-30T00:48:25;15.70;;;9.70;;
24261;SDS011;12385;51.412;5.540;2024-01-30T00:50:51;16.27;;;9.38;;
24261;SDS011;12385;51.412;5.540;2024-01-30T00:53:18;16.30;;;9.70;;
24261;SDS011;12385;51.412;5.540;2024-01-30T00:55:44;15.07;;;9.07;;
24261;SDS011;12385;51.412;5.540;2024-01-30T00:58:10;17.20;;;9.70;;
24261;SDS011;12385;51.412;5.540;2024-01-30T01:00:36;16.50;;;10.05;;
24261;SDS011;12385;51.412;5.540;2024-01-30T01:03:02;16.52;;;10.07;;
24261;SDS011;12385;51.412;5.540;2024-01-30T01:05:28;15.13;;;9.85;;
24261;SDS011;12385;51.412;5.540;2024-01-30T01:07:54;14.93;;;9.70;;
24261;SDS011;12385;51.412;5.540;2024-01-30T01:10:20;16.75;;;9.80;;
24261;SDS011;12385;51.412;5.540;2024-01-30T01:12:49;15.73;;;9.65;;
24261;SDS011;12385;51.412;5.540;2024-01-30T01:15:15;19.17;;;10.25;;
24261;SDS011;12385;51.412;5.540;2024-01-30T01:17:40;13.07;;;9.48;;
24261;SDS011;12385;51.412;5.540;2024-01-30T01:20:07;15.90;;;10.25;;
24261;SDS011;12385;51.412;5.540;2024-01-30T01:22:33;12.73;;;9.10;;
24261;SDS011;12385;51.412;5.540;2024-01-30T01:24:59;17.00;;;9.75;;
24261;SDS011;12385;51.412;5.540;2024-01-30T01:27:25;13.43;;;9.30;;
24261;SDS011;12385;51.412;5.540;2024-01-30T01:29:52;14.35;;;10.07;;
24261;SDS011;12385;51.412;5.540;2024-01-30T01:32:21;15.15;;;9.35;;
24261;SDS011;12385;51.412;5.540;2024-01-30T01:34:49;13.73;;;9.40;;
24261;SDS011;12385;51.412;5.540;2024-01-30T01:37:19;14.38;;;9.90;;
24261;SDS011;12385;51.412;5.540;2024-01-30T01:39:50;19.13;;;9.15;;
24261;SDS011;12385;51.412;5.540;2024-01-30T01:42:18;13.23;;;9.30;;
24261;SDS011;12385;51.412;5.540;2024-01-30T01:44:44;13.45;;;9.00;;
24261;SDS011;12385;51.412;5.540;2024-01-30T01:47:10;15.18;;;8.90;;
24261;SDS011;12385;51.412;5.540;2024-01-30T01:49:36;19.00;;;9.50;;
24261;SDS011;12385;51.412;5.540;2024-01-30T01:52:02;14.35;;;8.60;;
24261;SDS011;12385;51.412;5.540;2024-01-30T01:54:28;12.80;;;8.45;;
24261;SDS011;12385;51.412;5.540;2024-01-30T01:56:56;14.77;;;9.27;;
24261;SDS011;12385;51.412;5.540;2024-01-30T01:59:22;13.82;;;8.98;;
24261;SDS011;12385;51.412;5.540;2024-01-30T02:01:49;15.32;;;8.90;;
24261;SDS011;12385;51.412;5.540;2024-01-30T02:04:19;14.23;;;9.50;;
24261;SDS011;12385;51.412;5.540;2024-01-30T02:06:44;12.40;;;8.90;;
24261;SDS011;12385;51.412;5.540;2024-01-30T02:09:10;16.70;;;9.32;;
24261;SDS011;12385;51.412;5.540;2024-01-30T02:11:36;11.23;;;8.80;;
24261;SDS011;12385;51.412;5.540;2024-01-30T02:14:02;14.82;;;9.40;;
24261;SDS011;12385;51.412;5.540;2024-01-30T02:16:29;17.45;;;9.43;;
24261;SDS011;12385;51.412;5.540;2024-01-30T02:18:55;13.02;;;8.75;;
24261;SDS011;12385;51.412;5.540;2024-01-30T02:21:20;14.25;;;9.43;;
24261;SDS011;12385;51.412;5.540;2024-01-30T02:23:49;15.35;;;9.00;;
24261;SDS011;12385;51.412;5.540;2024-01-30T02:26:19;13.73;;;9.30;;
24261;SDS011;12385;51.412;5.540;2024-01-30T02:28:44;13.38;;;8.77;;
24261;SDS011;12385;51.412;5.540;2024-01-30T02:31:10;15.27;;;8.98;;
24261;SDS011;12385;51.412;5.540;2024-01-30T02:33:36;15.25;;;9.95;;
24261;SDS011;12385;51.412;5.540;2024-01-30T02:36:02;13.38;;;9.00;;
24261;SDS011;12385;51.412;5.540;2024-01-30T02:38:28;13.10;;;8.65;;
24261;SDS011;12385;51.412;5.540;2024-01-30T02:40:54;11.75;;;8.68;;
24261;SDS011;12385;51.412;5.540;2024-01-30T02:43:21;12.75;;;8.77;;
24261;SDS011;12385;51.412;5.540;2024-01-30T02:45:50;13.23;;;9.40;;
24261;SDS011;12385;51.412;5.540;2024-01-30T02:48:18;13.23;;;8.43;;
24261;SDS011;12385;51.412;5.540;2024-01-30T02:50:44;13.10;;;8.47;;
24261;SDS011;12385;51.412;5.540;2024-01-30T02:53:13;11.90;;;8.88;;
24261;SDS011;12385;51.412;5.540;2024-01-30T02:55:39;17.15;;;8.52;;
24261;SDS011;12385;51.412;5.540;2024-01-30T02:58:04;13.38;;;9.02;;
24261;SDS011;12385;51.412;5.540;2024-01-30T03:00:30;12.10;;;8.27;;
24261;SDS011;12385;51.412;5.540;2024-01-30T03:02:56;12.10;;;8.32;;
24261;SDS011;12385;51.412;5.540;2024-01-30T03:05:21;12.05;;;8.30;;
24261;SDS011;12385;51.412;5.540;2024-01-30T03:07:48;13.77;;;8.43;;
24261;SDS011;12385;51.412;5.540;2024-01-30T03:10:15;13.93;;;8.15;;
24261;SDS011;12385;51.412;5.540;2024-01-30T03:12:44;13.57;;;8.25;;
24261;SDS011;12385;51.412;5.540;2024-01-30T03:15:10;14.38;;;8.70;;
24261;SDS011;12385;51.412;5.540;2024-01-30T03:17:35;12.85;;;8.40;;
24261;SDS011;12385;51.412;5.540;2024-01-30T03:20:02;12.73;;;8.10;;
24261;SDS011;12385;51.412;5.540;2024-01-30T03:22:29;13.50;;;8.27;;
24261;SDS011;12385;51.412;5.540;2024-01-30T03:24:54;12.93;;;8.18;;
24261;SDS011;12385;51.412;5.540;2024-01-30T03:27:21;13.93;;;8.40;;
24261;SDS011;12385;51.412;5.540;2024-01-30T03:29:48;12.60;;;7.95;;
24261;SDS011;12385;51.412;5.540;2024-01-30T03:32:14;12.95;;;8.20;;
24261;SDS011;12385;51.412;5.540;2024-01-30T03:34:39;14.18;;;8.70;;
24261;SDS011;12385;51.412;5.540;2024-01-30T03:37:05;16.10;;;8.60;;
24261;SDS011;12385;51.412;5.540;2024-01-30T03:39:30;13.98;;;8.93;;
24261;SDS011;12385;51.412;5.540;2024-01-30T03:41:56;12.85;;;8.18;;
24261;SDS011;12385;51.412;5.540;2024-01-30T03:44:22;13.18;;;8.68;;
24261;SDS011;12385;51.412;5.540;2024-01-30T03:46:50;12.75;;;8.18;;
24261;SDS011;12385;51.412;5.540;2024-01-30T03:49:18;17.27;;;8.90;;
24261;SDS011;12385;51.412;5.540;2024-01-30T03:51:44;15.63;;;8.45;;
24261;SDS011;12385;51.412;5.540;2024-01-30T03:54:09;10.98;;;8.02;;
24261;SDS011;12385;51.412;5.540;2024-01-30T03:56:36;13.38;;;8.32;;
24261;SDS011;12385;51.412;5.540;2024-01-30T03:59:01;11.65;;;8.07;;
24261;SDS011;12385;51.412;5.540;2024-01-30T04:01:28;11.40;;;8.30;;
24261;SDS011;12385;51.412;5.540;2024-01-30T04:03:54;16.35;;;8.23;;
24261;SDS011;12385;51.412;5.540;2024-01-30T04:06:20;12.02;;;8.30;;
24261;SDS011;12385;51.412;5.540;2024-01-30T04:08:48;12.60;;;7.80;;
24261;SDS011;12385;51.412;5.540;2024-01-30T04:11:14;10.50;;;7.60;;
24261;SDS011;12385;51.412;5.540;2024-01-30T04:13:40;11.02;;;7.40;;
24261;SDS011;12385;51.412;5.540;2024-01-30T04:16:18;10.00;;;7.18;;
24261;SDS011;12385;51.412;5.540;2024-01-30T04:18:48;10.30;;;7.00;;
24261;SDS011;12385;51.412;5.540;2024-01-30T04:21:14;11.27;;;7.70;;
24261;SDS011;12385;51.412;5.540;2024-01-30T04:23:40;12.95;;;7.05;;
24261;SDS011;12385;51.412;5.540;2024-01-30T04:26:06;10.48;;;7.13;;
24261;SDS011;12385;51.412;5.540;2024-01-30T04:28:32;11.25;;;6.85;;
24261;SDS011;12385;51.412;5.540;2024-01-30T04:30:57;12.68;;;6.40;;
24261;SDS011;12385;51.412;5.540;2024-01-30T04:33:23;11.27;;;6.72;;
24261;SDS011;12385;51.412;5.540;2024-01-30T04:35:48;10.95;;;6.28;;
24261;SDS011;12385;51.412;5.540;2024-01-30T04:38:14;9.63;;;6.72;;
24261;SDS011;12385;51.412;5.540;2024-01-30T04:40:40;11.98;;;7.10;;
24261;SDS011;12385;51.412;5.540;2024-01-30T04:43:06;10.05;;;7.00;;
24261;SDS011;12385;51.412;5.540;2024-01-30T04:45:32;11.27;;;6.75;;
24261;SDS011;12385;51.412;5.540;2024-01-30T04:47:57;8.40;;;6.32;;
24261;SDS011;12385;51.412;5.540;2024-01-30T04:50:24;11.75;;;6.82;;
24261;SDS011;12385;51.412;5.540;2024-01-30T04:52:51;10.93;;;6.85;;
24261;SDS011;12385;51.412;5.540;2024-01-30T04:55:20;9.20;;;6.70;;
24261;SDS011;12385;51.412;5.540;2024-01-30T04:57:49;8.40;;;6.40;;
24261;SDS011;12385;51.412;5.540;2024-01-30T05:00:15;10.53;;;6.50;;
24261;SDS011;12385;51.412;5.540;2024-01-30T05:02:44;8.95;;;6.57;;
24261;SDS011;12385;51.412;5.540;2024-01-30T05:05:10;10.27;;;6.30;;
24261;SDS011;12385;51.412;5.540;2024-01-30T05:07:36;8.93;;;6.15;;
24261;SDS011;12385;51.412;5.540;2024-01-30T05:10:01;11.45;;;6.53;;
24261;SDS011;12385;51.412;5.540;2024-01-30T05:12:28;8.50;;;6.22;;
24261;SDS011;12385;51.412;5.540;2024-01-30T05:14:55;9.25;;;6.57;;
24261;SDS011;12385;51.412;5.540;2024-01-30T05:17:20;8.45;;;6.03;;
24261;SDS011;12385;51.412;5.540;2024-01-30T05:19:48;9.90;;;6.30;;
24261;SDS011;12385;51.412;5.540;2024-01-30T05:22:14;10.18;;;6.50;;
24261;SDS011;12385;51.412;5.540;2024-01-30T05:24:44;10.45;;;6.07;;
24261;SDS011;12385;51.412;5.540;2024-01-30T05:27:10;11.60;;;6.40;;
24261;SDS011;12385;51.412;5.540;2024-01-30T05:29:36;11.25;;;6.43;;
24261;SDS011;12385;51.412;5.540;2024-01-30T05:32:02;8.95;;;6.32;;
24261;SDS011;12385;51.412;5.540;2024-01-30T05:34:29;10.70;;;6.80;;
24261;SDS011;12385;51.412;5.540;2024-01-30T05:36:54;12.80;;;6.57;;
24261;SDS011;12385;51.412;5.540;2024-01-30T05:39:20;10.80;;;6.22;;
24261;SDS011;12385;51.412;5.540;2024-01-30T05:41:49;10.77;;;6.53;;
24261;SDS011;12385;51.412;5.540;2024-01-30T05:44:15;10.00;;;5.70;;
24261;SDS011;12385;51.412;5.540;2024-01-30T05:46:44;11.18;;;6.05;;
24261;SDS011;12385;51.412;5.540;2024-01-30T05:49:14;10.52;;;6.35;;
24261;SDS011;12385;51.412;5.540;2024-01-30T05:51:49;9.52;;;6.30;;
24261;SDS011;12385;51.412;5.540;2024-01-30T05:54:15;8.13;;;6.07;;
24261;SDS011;12385;51.412;5.540;2024-01-30T05:59:10;8.63;;;5.93;;
24261;SDS011;12385;51.412;5.540;2024-01-30T06:01:36;9.02;;;5.90;;
24261;SDS011;12385;51.412;5.540;2024-01-30T06:04:01;9.93;;;6.38;;
24261;SDS011;12385;51.412;5.540;2024-01-30T06:06:27;9.60;;;5.78;;
24261;SDS011;12385;51.412;5.540;2024-01-30T06:08:57;9.52;;;5.90;;
24261;SDS011;12385;51.412;5.540;2024-01-30T06:11:22;11.05;;;6.03;;
24261;SDS011;12385;51.412;5.540;2024-01-30T06:13:49;10.57;;;5.90;;
24261;SDS011;12385;51.412;5.540;2024-01-30T06:16:21;9.30;;;5.60;;
24261;SDS011;12385;51.412;5.540;2024-01-30T06:18:50;10.65;;;5.57;;
24261;SDS011;12385;51.412;5.540;2024-01-30T06:21:20;10.15;;;5.63;;
24261;SDS011;12385;51.412;5.540;2024-01-30T06:23:50;10.80;;;5.50;;
24261;SDS011;12385;51.412;5.540;2024-01-30T06:26:20;11.52;;;5.97;;
24261;SDS011;12385;51.412;5.540;2024-01-30T06:28:50;10.40;;;5.93;;
24261;SDS011;12385;51.412;5.540;2024-01-30T06:31:21;8.55;;;5.72;;
24261;SDS011;12385;51.412;5.540;2024-01-30T06:33:49;9.05;;;5.65;;
24261;SDS011;12385;51.412;5.540;2024-01-30T06:36:25;11.70;;;5.57;;
24261;SDS011;12385;51.412;5.540;2024-01-30T06:38:50;10.70;;;5.93;;
24261;SDS011;12385;51.412;5.540;2024-01-30T06:41:21;10.30;;;5.97;;
24261;SDS011;12385;51.412;5.540;2024-01-30T06:43:50;8.82;;;5.82;;
24261;SDS011;12385;51.412;5.540;2024-01-30T06:46:24;9.90;;;6.33;;
24261;SDS011;12385;51.412;5.540;2024-01-30T06:48:50;8.57;;;5.63;;
24261;SDS011;12385;51.412;5.540;2024-01-30T06:51:22;8.68;;;6.22;;
24261;SDS011;12385;51.412;5.540;2024-01-30T06:53:51;10.23;;;6.20;;
24261;SDS011;12385;51.412;5.540;2024-01-30T06:56:20;12.05;;;6.18;;
24261;SDS011;12385;51.412;5.540;2024-01-30T06:58:52;10.03;;;6.40;;
24261;SDS011;12385;51.412;5.540;2024-01-30T07:01:27;8.10;;;5.80;;
24261;SDS011;12385;51.412;5.540;2024-01-30T07:03:54;9.25;;;5.75;;
24261;SDS011;12385;51.412;5.540;2024-01-30T07:06:19;9.45;;;6.25;;
24261;SDS011;12385;51.412;5.540;2024-01-30T07:08:49;11.30;;;6.40;;
24261;SDS011;12385;51.412;5.540;2024-01-30T07:11:22;10.07;;;6.43;;
24261;SDS011;12385;51.412;5.540;2024-01-30T07:13:52;12.20;;;6.63;;
24261;SDS011;12385;51.412;5.540;2024-01-30T07:16:19;9.73;;;6.28;;
24261;SDS011;12385;51.412;5.540;2024-01-30T07:18:44;10.18;;;6.35;;
24261;SDS011;12385;51.412;5.540;2024-01-30T07:21:11;10.88;;;5.85;;
24261;SDS011;12385;51.412;5.540;2024-01-30T07:23:37;11.13;;;6.40;;
24261;SDS011;12385;51.412;5.540;2024-01-30T07:26:07;8.18;;;6.15;;
24261;SDS011;12385;51.412;5.540;2024-01-30T07:30:59;9.13;;;6.57;;
24261;SDS011;12385;51.412;5.540;2024-01-30T07:33:26;11.55;;;6.57;;
24261;SDS011;12385;51.412;5.540;2024-01-30T07:35:52;10.05;;;6.90;;
24261;SDS011;12385;51.412;5.540;2024-01-30T07:38:19;10.10;;;6.50;;
24261;SDS011;12385;51.412;5.540;2024-01-30T07:40:45;9.65;;;6.47;;
24261;SDS011;12385;51.412;5.540;2024-01-30T07:43:14;9.35;;;6.47;;
24261;SDS011;12385;51.412;5.540;2024-01-30T07:45:40;10.98;;;6.53;;
24261;SDS011;12385;51.412;5.540;2024-01-30T07:48:06;10.45;;;6.57;;
24261;SDS011;12385;51.412;5.540;2024-01-30T07:50:31;12.95;;;6.68;;
24261;SDS011;12385;51.412;5.540;2024-01-30T07:52:59;12.07;;;6.65;;
24261;SDS011;12385;51.412;5.540;2024-01-30T07:55:25;17.73;;;9.82;;
24261;SDS011;12385;51.412;5.540;2024-01-30T07:57:56;13.30;;;6.93;;
24261;SDS011;12385;51.412;5.540;2024-01-30T08:00:22;9.63;;;5.97;;
24261;SDS011;12385;51.412;5.540;2024-01-30T08:02:49;10.95;;;6.22;;
24261;SDS011;12385;51.412;5.540;2024-01-30T08:05:14;10.32;;;6.88;;
24261;SDS011;12385;51.412;5.540;2024-01-30T08:07:41;9.65;;;6.50;;
24261;SDS011;12385;51.412;5.540;2024-01-30T08:10:12;9.02;;;5.75;;
24261;SDS011;12385;51.412;5.540;2024-01-30T08:12:38;10.43;;;6.60;;
24261;SDS011;12385;51.412;5.540;2024-01-30T08:15:04;9.50;;;6.75;;
24261;SDS011;12385;51.412;5.540;2024-01-30T08:17:30;10.20;;;6.60;;
24261;SDS011;12385;51.412;5.540;2024-01-30T08:19:56;13.60;;;6.85;;
24261;SDS011;12385;51.412;5.540;2024-01-30T08:22:21;12.15;;;6.90;;
24261;SDS011;12385;51.412;5.540;2024-01-30T08:24:49;12.55;;;6.50;;
24261;SDS011;12385;51.412;5.540;2024-01-30T08:27:14;11.93;;;7.03;;
24261;SDS011;12385;51.412;5.540;2024-01-30T08:29:40;14.50;;;7.10;;
24261;SDS011;12385;51.412;5.540;2024-01-30T08:32:06;10.55;;;6.40;;
24261;SDS011;12385;51.412;5.540;2024-01-30T08:34:32;13.93;;;6.90;;
24261;SDS011;12385;51.412;5.540;2024-01-30T08:36:58;12.57;;;7.18;;
24261;SDS011;12385;51.412;5.540;2024-01-30T08:39:24;11.68;;;7.53;;
24261;SDS011;12385;51.412;5.540;2024-01-30T08:41:49;13.77;;;7.07;;
24261;SDS011;12385;51.412;5.540;2024-01-30T08:44:15;9.85;;;6.97;;
24261;SDS011;12385;51.412;5.540;2024-01-30T08:49:12;11.50;;;7.18;;
24261;SDS011;12385;51.412;5.540;2024-01-30T08:51:41;14.25;;;7.20;;
24261;SDS011;12385;51.412;5.540;2024-01-30T08:54:07;10.65;;;6.95;;
24261;SDS011;12385;51.412;5.540;2024-01-30T08:56:32;11.98;;;8.07;;
24261;SDS011;12385;51.412;5.540;2024-01-30T08:58:58;10.77;;;7.53;;
24261;SDS011;12385;51.412;5.540;2024-01-30T09:01:24;10.77;;;6.85;;
24261;SDS011;12385;51.412;5.540;2024-01-30T09:03:50;14.88;;;7.47;;
24261;SDS011;12385;51.412;5.540;2024-01-30T09:06:22;11.63;;;7.50;;
24261;SDS011;12385;51.412;5.540;2024-01-30T09:08:50;11.25;;;7.22;;
24261;SDS011;12385;51.412;5.540;2024-01-30T09:11:19;12.25;;;7.85;;
24261;SDS011;12385;51.412;5.540;2024-01-30T09:13:45;11.05;;;7.07;;
24261;SDS011;12385;51.412;5.540;2024-01-30T09:16:10;15.00;;;7.45;;
24261;SDS011;12385;51.412;5.540;2024-01-30T09:18:36;12.15;;;7.10;;
24261;SDS011;12385;51.412;5.540;2024-01-30T09:21:02;11.63;;;7.25;;
24261;SDS011;12385;51.412;5.540;2024-01-30T09:23:27;15.35;;;7.85;;
24261;SDS011;12385;51.412;5.540;2024-01-30T09:25:53;13.98;;;8.07;;
24261;SDS011;12385;51.412;5.540;2024-01-30T09:28:20;13.68;;;7.47;;
24261;SDS011;12385;51.412;5.540;2024-01-30T09:30:49;18.33;;;7.40;;
24261;SDS011;12385;51.412;5.540;2024-01-30T09:33:14;12.88;;;7.28;;
24261;SDS011;12385;51.412;5.540;2024-01-30T09:35:40;14.05;;;7.25;;
24261;SDS011;12385;51.412;5.540;2024-01-30T09:38:06;11.77;;;7.43;;
24261;SDS011;12385;51.412;5.540;2024-01-30T09:40:31;14.13;;;7.13;;
24261;SDS011;12385;51.412;5.540;2024-01-30T09:42:58;16.98;;;7.45;;
24261;SDS011;12385;51.412;5.540;2024-01-30T09:45:27;11.52;;;7.28;;
24261;SDS011;12385;51.412;5.540;2024-01-30T09:47:52;12.30;;;7.03;;
24261;SDS011;12385;51.412;5.540;2024-01-30T09:50:20;13.57;;;7.47;;
24261;SDS011;12385;51.412;5.540;2024-01-30T09:52:49;15.73;;;8.20;;
24261;SDS011;12385;51.412;5.540;2024-01-30T09:55:20;12.82;;;7.78;;
24261;SDS011;12385;51.412;5.540;2024-01-30T09:57:45;14.75;;;8.10;;
24261;SDS011;12385;51.412;5.540;2024-01-30T10:00:14;13.88;;;8.13;;
24261;SDS011;12385;51.412;5.540;2024-01-30T10:02:42;12.98;;;7.90;;
24261;SDS011;12385;51.412;5.540;2024-01-30T10:05:07;18.00;;;7.88;;
24261;SDS011;12385;51.412;5.540;2024-01-30T10:07:33;16.38;;;7.90;;
24261;SDS011;12385;51.412;5.540;2024-01-30T10:09:59;15.25;;;8.00;;
24261;SDS011;12385;51.412;5.540;2024-01-30T10:12:29;14.88;;;7.80;;
24261;SDS011;12385;51.412;5.540;2024-01-30T10:14:55;18.08;;;7.50;;
24261;SDS011;12385;51.412;5.540;2024-01-30T10:17:24;16.85;;;7.43;;
24261;SDS011;12385;51.412;5.540;2024-01-30T10:19:50;18.13;;;7.93;;
24261;SDS011;12385;51.412;5.540;2024-01-30T10:22:20;14.68;;;7.20;;
24261;SDS011;12385;51.412;5.540;2024-01-30T10:24:49;16.63;;;7.90;;
24261;SDS011;12385;51.412;5.540;2024-01-30T10:27:14;14.68;;;7.43;;
24261;SDS011;12385;51.412;5.540;2024-01-30T10:29:40;17.55;;;7.55;;
24261;SDS011;12385;51.412;5.540;2024-01-30T10:32:06;13.85;;;7.30;;
24261;SDS011;12385;51.412;5.540;2024-01-30T10:34:32;16.48;;;7.85;;
24261;SDS011;12385;51.412;5.540;2024-01-30T10:37:08;13.75;;;7.78;;
24261;SDS011;12385;51.412;5.540;2024-01-30T10:39:41;12.23;;;7.20;;
24261;SDS011;12385;51.412;5.540;2024-01-30T10:42:11;18.38;;;7.57;;
24261;SDS011;12385;51.412;5.540;2024-01-30T10:44:43;18.70;;;7.97;;
24261;SDS011;12385;51.412;5.540;2024-01-30T10:47:27;19.63;;;7.63;;
24261;SDS011;12385;51.412;5.540;2024-01-30T10:49:54;19.00;;;7.85;;
24261;SDS011;12385;51.412;5.540;2024-01-30T10:52:23;16.95;;;8.00;;
24261;SDS011;12385;51.412;5.540;2024-01-30T10:54:54;15.48;;;7.88;;
24261;SDS011;12385;51.412;5.540;2024-01-30T10:57:24;13.43;;;7.55;;
24261;SDS011;12385;51.412;5.540;2024-01-30T10:59:58;17.42;;;8.70;;
24261;SDS011;12385;51.412;5.540;2024-01-30T11:02:25;14.90;;;7.53;;
24261;SDS011;12385;51.412;5.540;2024-01-30T11:04:58;15.82;;;7.68;;
24261;SDS011;12385;51.412;5.540;2024-01-30T11:07:29;13.27;;;8.10;;
24261;SDS011;12385;51.412;5.540;2024-01-30T11:12:26;15.10;;;7.90;;
24261;SDS011;12385;51.412;5.540;2024-01-30T11:15:08;15.40;;;7.88;;
24261;SDS011;12385;51.412;5.540;2024-01-30T11:20:27;15.82;;;7.72;;
24261;SDS011;12385;51.412;5.540;2024-01-30T11:22:56;15.65;;;8.05;;
24261;SDS011;12385;51.412;5.540;2024-01-30T11:25:23;12.98;;;7.63;;
24261;SDS011;12385;51.412;5.540;2024-01-30T11:27:52;16.08;;;7.88;;
24261;SDS011;12385;51.412;5.540;2024-01-30T11:30:25;14.15;;;7.78;;
24261;SDS011;12385;51.412;5.540;2024-01-30T11:35:24;14.18;;;7.30;;
24261;SDS011;12385;51.412;5.540;2024-01-30T11:37:50;13.15;;;7.50;;
24261;SDS011;12385;51.412;5.540;2024-01-30T11:40:18;14.75;;;7.28;;
24261;SDS011;12385;51.412;5.540;2024-01-30T11:42:44;11.75;;;6.80;;
24261;SDS011;12385;51.412;5.540;2024-01-30T11:45:17;16.90;;;7.38;;
24261;SDS011;12385;51.412;5.540;2024-01-30T11:47:43;12.65;;;6.90;;
24261;SDS011;12385;51.412;5.540;2024-01-30T11:50:09;13.70;;;6.30;;
24261;SDS011;12385;51.412;5.540;2024-01-30T11:52:35;11.93;;;6.75;;
24261;SDS011;12385;51.412;5.540;2024-01-30T11:55:01;10.88;;;5.47;;
24261;SDS011;12385;51.412;5.540;2024-01-30T11:57:29;11.45;;;5.70;;
24261;SDS011;12385;51.412;5.540;2024-01-30T11:59:54;13.48;;;5.38;;
24261;SDS011;12385;51.412;5.540;2024-01-30T12:02:20;12.82;;;4.68;;
24261;SDS011;12385;51.412;5.540;2024-01-30T12:04:50;11.27;;;4.63;;
24261;SDS011;12385;51.412;5.540;2024-01-30T12:07:17;11.38;;;4.43;;
24261;SDS011;12385;51.412;5.540;2024-01-30T12:09:51;10.68;;;4.10;;
24261;SDS011;12385;51.412;5.540;2024-01-30T12:12:19;8.88;;;4.20;;
24261;SDS011;12385;51.412;5.540;2024-01-30T12:14:50;10.68;;;4.25;;
24261;SDS011;12385;51.412;5.540;2024-01-30T12:17:29;11.75;;;4.22;;
24261;SDS011;12385;51.412;5.540;2024-01-30T12:20:06;11.13;;;4.15;;
24261;SDS011;12385;51.412;5.540;2024-01-30T12:22:43;8.85;;;3.80;;
24261;SDS011;12385;51.412;5.540;2024-01-30T12:25:20;11.95;;;4.07;;
24261;SDS011;12385;51.412;5.540;2024-01-30T12:27:52;8.15;;;3.58;;
24261;SDS011;12385;51.412;5.540;2024-01-30T12:30:20;9.77;;;3.50;;
24261;SDS011;12385;51.412;5.540;2024-01-30T12:32:50;8.52;;;3.75;;
24261;SDS011;12385;51.412;5.540;2024-01-30T12:35:19;12.43;;;3.55;;
24261;SDS011;12385;51.412;5.540;2024-01-30T12:40:14;15.82;;;4.93;;
24261;SDS011;12385;51.412;5.540;2024-01-30T12:42:45;15.10;;;5.18;;
24261;SDS011;12385;51.412;5.540;2024-01-30T12:45:14;12.68;;;4.90;;
24261;SDS011;12385;51.412;5.540;2024-01-30T12:47:43;10.85;;;4.30;;
24261;SDS011;12385;51.412;5.540;2024-01-30T12:50:09;20.05;;;4.22;;
24261;SDS011;12385;51.412;5.540;2024-01-30T12:52:37;8.40;;;3.95;;
24261;SDS011;12385;51.412;5.540;2024-01-30T12:55:03;9.82;;;3.10;;
24261;SDS011;12385;51.412;5.540;2024-01-30T12:57:29;7.78;;;2.47;;
24261;SDS011;12385;51.412;5.540;2024-01-30T12:59:54;7.03;;;1.90;;
24261;SDS011;12385;51.412;5.540;2024-01-30T13:02:20;5.10;;;1.50;;
24261;SDS011;12385;51.412;5.540;2024-01-30T13:04:48;5.07;;;1.08;;
24261;SDS011;12385;51.412;5.540;2024-01-30T13:07:17;2.72;;;1.10;;
24261;SDS011;12385;51.412;5.540;2024-01-30T13:09:48;3.70;;;1.20;;
24261;SDS011;12385;51.412;5.540;2024-01-30T13:12:18;4.53;;;1.30;;
24261;SDS011;12385;51.412;5.540;2024-01-30T13:17:13;4.97;;;0.88;;
24261;SDS011;12385;51.412;5.540;2024-01-30T13:19:38;3.65;;;0.80;;
24261;SDS011;12385;51.412;5.540;2024-01-30T13:22:04;4.38;;;1.08;;
24261;SDS011;12385;51.412;5.540;2024-01-30T13:24:30;3.75;;;0.80;;
24261;SDS011;12385;51.412;5.540;2024-01-30T13:26:55;4.57;;;1.05;;
24261;SDS011;12385;51.412;5.540;2024-01-30T13:29:21;3.55;;;0.80;;
24261;SDS011;12385;51.412;5.540;2024-01-30T13:31:49;4.30;;;1.00;;
24261;SDS011;12385;51.412;5.540;2024-01-30T13:34:18;3.95;;;0.90;;
24261;SDS011;12385;51.412;5.540;2024-01-30T13:36:44;3.57;;;0.80;;
24261;SDS011;12385;51.412;5.540;2024-01-30T13:39:10;4.95;;;1.08;;
24261;SDS011;12385;51.412;5.540;2024-01-30T13:41:37;6.50;;;1.10;;
24261;SDS011;12385;51.412;5.540;2024-01-30T13:44:03;6.45;;;1.02;;
24261;SDS011;12385;51.412;5.540;2024-01-30T13:46:29;3.20;;;0.80;;
24261;SDS011;12385;51.412;5.540;2024-01-30T13:48:55;4.03;;;0.70;;
24261;SDS011;12385;51.412;5.540;2024-01-30T13:51:21;5.18;;;1.05;;
24261;SDS011;12385;51.412;5.540;2024-01-30T13:53:48;3.38;;;0.90;;
24261;SDS011;12385;51.412;5.540;2024-01-30T13:56:19;3.63;;;0.88;;
24261;SDS011;12385;51.412;5.540;2024-01-30T13:58:49;10.07;;;1.20;;
24261;SDS011;12385;51.412;5.540;2024-01-30T14:01:18;3.92;;;1.00;;
24261;SDS011;12385;51.412;5.540;2024-01-30T14:03:44;4.40;;;0.85;;
24261;SDS011;12385;51.412;5.540;2024-01-30T14:06:10;3.40;;;0.80;;
24261;SDS011;12385;51.412;5.540;2024-01-30T14:08:36;2.53;;;0.85;;
24261;SDS011;12385;51.412;5.540;2024-01-30T14:11:02;3.85;;;1.10;;
24261;SDS011;12385;51.412;5.540;2024-01-30T14:13:28;2.38;;;0.80;;
24261;SDS011;12385;51.412;5.540;2024-01-30T14:15:55;3.00;;;1.08;;
24261;SDS011;12385;51.412;5.540;2024-01-30T14:18:21;5.82;;;1.05;;
24261;SDS011;12385;51.412;5.540;2024-01-30T14:20:48;5.10;;;1.08;;
24261;SDS011;12385;51.412;5.540;2024-01-30T14:23:16;2.15;;;0.82;;
24261;SDS011;12385;51.412;5.540;2024-01-30T14:25:43;6.93;;;1.92;;
24261;SDS011;12385;51.412;5.540;2024-01-30T14:28:09;3.35;;;0.70;;
24261;SDS011;12385;51.412;5.540;2024-01-30T14:30:35;4.43;;;0.90;;
24261;SDS011;12385;51.412;5.540;2024-01-30T14:33:01;9.55;;;1.20;;
24261;SDS011;12385;51.412;5.540;2024-01-30T14:35:27;2.95;;;1.00;;
24261;SDS011;12385;51.412;5.540;2024-01-30T14:37:52;4.47;;;0.80;;
24261;SDS011;12385;51.412;5.540;2024-01-30T14:40:18;4.15;;;0.88;;
24261;SDS011;12385;51.412;5.540;2024-01-30T14:42:44;3.13;;;0.80;;
24261;SDS011;12385;51.412;5.540;2024-01-30T14:45:13;5.63;;;1.08;;
24261;SDS011;12385;51.412;5.540;2024-01-30T14:47:38;7.30;;;1.13;;
24261;SDS011;12385;51.412;5.540;2024-01-30T14:50:04;4.25;;;0.90;;
24261;SDS011;12385;51.412;5.540;2024-01-30T14:52:30;3.72;;;1.00;;
24261;SDS011;12385;51.412;5.540;2024-01-30T14:54:56;9.95;;;1.33;;
24261;SDS011;12385;51.412;5.540;2024-01-30T14:57:23;4.38;;;1.00;;
24261;SDS011;12385;51.412;5.540;2024-01-30T14:59:50;5.10;;;1.27;;
24261;SDS011;12385;51.412;5.540;2024-01-30T15:02:17;10.95;;;1.40;;
24261;SDS011;12385;51.412;5.540;2024-01-30T15:04:43;6.53;;;1.33;;